Time;durP1;ratioP1;P1;durP2;ratioP2;P2;SDS_P1;SDS_P2;PMS_P1;PMS_P2;Temp;Humidity;BMP_temperature;BMP_pressure;BME280_temperature;BME280_humidity;BME280_pressure;Samples;Min_cycle;Max_cycle;Signal;HPM_P1;HPM_P2
2021/01/18 00:04:19;;;;;;;17.25;14.68;;;;;;;;;;4933239;28;20125;31
2021/01/18 00:06:45;;;;;;;19.42;14.73;;;;;;;;;;4174888;34;20119;-50
2021/01/18 00:09:11;;;;;;;17.75;14.82;;;;;;;;;;4177617;34;20198;-49
2021/01/18 00:11:37;;;;;;;19.50;15.27;;;;;;;;;;4191248;34;20098;-49
2021/01/18 00:14:03;;;;;;;19.17;15.07;;;;;;;;;;4191039;34;20110;-49
2021/01/18 00:16:28;;;;;;;18.37;15.90;;;;;;;;;;4191082;34;20190;-51
2021/01/18 00:18:54;;;;;;;19.05;16.20;;;;;;;;;;4191078;34;20126;-52
2021/01/18 00:21:20;;;;;;;17.60;14.73;;;;;;;;;;4191250;34;20126;-52
2021/01/18 00:23:46;;;;;;;20.27;15.55;;;;;;;;;;4190932;34;20133;-48
2021/01/18 00:26:12;;;;;;;20.15;15.55;;;;;;;;;;4191003;34;20113;-52
2021/01/18 00:28:39;;;;;;;18.65;14.80;;;;;;;;;;4191249;34;20099;-51
2021/01/18 00:31:05;;;;;;;16.92;14.20;;;;;;;;;;4190907;34;20537;-50
2021/01/18 00:33:34;;;;;;;19.23;14.85;;;;;;;;;;4178085;34;20128;-53
2021/01/18 00:36:00;;;;;;;16.67;14.07;;;;;;;;;;4190998;34;20282;-52
2021/01/18 00:38:26;;;;;;;21.73;14.63;;;;;;;;;;4191012;34;20122;-50
2021/01/18 00:40:52;;;;;;;17.17;14.15;;;;;;;;;;4190706;34;20122;-51
2021/01/18 00:43:18;;;;;;;17.87;14.48;;;;;;;;;;4190822;34;20117;-49
2021/01/18 00:45:44;;;;;;;16.95;14.23;;;;;;;;;;4191255;34;20148;-49
2021/01/18 00:48:10;;;;;;;17.40;14.60;;;;;;;;;;4190886;34;20112;-49
2021/01/18 00:50:36;;;;;;;18.23;14.27;;;;;;;;;;4190718;34;20565;-50
2021/01/18 00:53:02;;;;;;;17.05;14.57;;;;;;;;;;4190803;34;20117;-50
2021/01/18 00:55:28;;;;;;;18.83;14.60;;;;;;;;;;4190632;34;20102;-51
2021/01/18 00:57:53;;;;;;;18.25;15.30;;;;;;;;;;4190817;34;20113;-51
2021/01/18 01:00:21;;;;;;;17.60;14.10;;;;;;;;;;4190543;34;20129;-51
2021/01/18 01:02:48;;;;;;;16.65;13.77;;;;;;;;;;4190721;34;20627;-52
2021/01/18 01:05:16;;;;;;;17.42;14.63;;;;;;;;;;4190139;34;20521;-52
2021/01/18 01:07:46;;;;;;;15.70;13.48;;;;;;;;;;4190748;34;20235;-50
2021/01/18 01:10:16;;;;;;;16.75;13.95;;;;;;;;;;4190537;34;20207;-51
2021/01/18 01:12:42;;;;;;;17.30;13.90;;;;;;;;;;4190601;34;20125;-48
2021/01/18 01:15:08;;;;;;;18.60;14.70;;;;;;;;;;4191991;34;20117;-52
2021/01/18 01:17:43;;;;;;;18.75;13.93;;;;;;;;;;4192868;34;20129;-49
2021/01/18 01:20:13;;;;;;;17.87;13.80;;;;;;;;;;4192505;34;20133;-50
2021/01/18 01:22:39;;;;;;;19.92;14.32;;;;;;;;;;4192678;34;20118;-51
2021/01/18 01:25:07;;;;;;;18.48;15.10;;;;;;;;;;4192528;34;20289;-51
2021/01/18 01:27:32;;;;;;;19.85;14.52;;;;;;;;;;4192825;34;20114;-53
2021/01/18 01:29:58;;;;;;;17.20;14.48;;;;;;;;;;4192665;34;20771;-51
2021/01/18 01:32:24;;;;;;;29.00;25.15;;;;;;;;;;4192497;34;20124;-50
2021/01/18 01:34:50;;;;;;;18.35;14.55;;;;;;;;;;4192412;34;20608;-50
2021/01/18 01:37:16;;;;;;;18.75;14.57;;;;;;;;;;4192466;34;20099;-50
2021/01/18 01:39:42;;;;;;;18.27;13.82;;;;;;;;;;4192233;34;20209;-51
2021/01/18 01:42:21;;;;;;;17.90;14.75;;;;;;;;;;4192389;34;20540;-51
2021/01/18 01:44:47;;;;;;;18.67;14.77;;;;;;;;;;4192492;34;20185;-49
2021/01/18 01:47:33;;;;;;;18.37;14.50;;;;;;;;;;4192426;34;20102;-50
2021/01/18 01:50:00;;;;;;;16.77;13.77;;;;;;;;;;4168392;34;20130;-51
2021/01/18 01:52:26;;;;;;;16.27;14.57;;;;;;;;;;4179811;34;20103;-50
2021/01/18 01:55:03;;;;;;;16.83;14.48;;;;;;;;;;4179375;34;20106;-49
2021/01/18 01:57:29;;;;;;;16.48;14.45;;;;;;;;;;4179585;34;20473;-50
2021/01/18 01:59:55;;;;;;;18.60;15.50;;;;;;;;;;4179490;34;20102;-52
2021/01/18 02:02:21;;;;;;;16.02;14.20;;;;;;;;;;4179522;34;20206;-49
2021/01/18 02:04:47;;;;;;;17.55;14.38;;;;;;;;;;4191755;34;20130;-53
2021/01/18 02:07:24;;;;;;;16.70;14.73;;;;;;;;;;4182486;34;20118;-57
2021/01/18 02:09:59;;;;;;;17.15;14.20;;;;;;;;;;4178574;34;20482;-52
2021/01/18 02:12:25;;;;;;;27.23;13.90;;;;;;;;;;4178402;34;20095;-54
2021/01/18 02:15:06;;;;;;;18.83;14.87;;;;;;;;;;4178258;34;20213;-54
2021/01/18 02:17:39;;;;;;;18.20;15.45;;;;;;;;;;4178649;34;20127;-50
2021/01/18 02:20:23;;;;;;;17.85;15.40;;;;;;;;;;4177254;34;20105;-50
2021/01/18 02:23:08;;;;;;;16.83;15.02;;;;;;;;;;4178423;34;20125;-50
2021/01/18 02:25:38;;;;;;;17.20;15.40;;;;;;;;;;4177712;34;20113;-51
2021/01/18 02:28:13;;;;;;;17.83;14.82;;;;;;;;;;4177230;34;20103;-53
2021/01/18 02:30:54;;;;;;;15.88;13.88;;;;;;;;;;4176894;34;20097;-51
2021/01/18 02:33:48;;;;;;;14.32;12.77;;;;;;;;;;4178414;34;20272;-52
2021/01/18 02:36:29;;;;;;;23.48;13.27;;;;;;;;;;4176782;34;20110;-53
2021/01/18 02:39:00;;;;;;;22.00;14.02;;;;;;;;;;4178433;34;20107;-52
2021/01/18 02:41:42;;;;;;;18.62;15.88;;;;;;;;;;4178206;34;20132;-52
2021/01/18 02:44:11;;;;;;;18.02;15.02;;;;;;;;;;4165497;34;20165;-49
2021/01/18 02:46:37;;;;;;;15.57;13.52;;;;;;;;;;4165605;34;20122;-50
2021/01/18 02:49:04;;;;;;;16.02;13.93;;;;;;;;;;4165422;34;20506;-53
2021/01/18 02:51:32;;;;;;;16.90;15.00;;;;;;;;;;4178156;34;20102;-56
2021/01/18 02:54:01;;;;;;;25.10;20.05;;;;;;;;;;4178363;34;20106;-49
2021/01/18 02:56:36;;;;;;;18.55;16.00;;;;;;;;;;4178254;34;20149;-55
2021/01/18 02:59:02;;;;;;;20.37;18.20;;;;;;;;;;4178119;34;20535;-56
2021/01/18 03:01:46;;;;;;;23.70;19.23;;;;;;;;;;4178066;34;20154;-54
2021/01/18 03:04:27;;;;;;;26.00;21.75;;;;;;;;;;4176731;34;20114;-50
2021/01/18 03:06:57;;;;;;;28.90;23.52;;;;;;;;;;4176455;34;20568;-50
2021/01/18 03:09:31;;;;;;;29.63;22.65;;;;;;;;;;4165252;34;20104;-49
2021/01/18 03:12:03;;;;;;;27.33;23.40;;;;;;;;;;4178058;34;20214;-53
2021/01/18 03:14:29;;;;;;;24.98;20.20;;;;;;;;;;4177952;34;20118;-53
2021/01/18 03:16:55;;;;;;;24.08;20.23;;;;;;;;;;4178093;34;20098;-52
2021/01/18 03:19:29;;;;;;;24.40;20.60;;;;;;;;;;4165350;34;20118;-56
2021/01/18 03:21:55;;;;;;;21.67;18.05;;;;;;;;;;4177859;34;20160;-55
2021/01/18 03:24:22;;;;;;;18.95;16.17;;;;;;;;;;4164995;34;20468;-57
2021/01/18 03:26:48;;;;;;;18.92;16.62;;;;;;;;;;4177800;34;20098;-56
2021/01/18 03:29:15;;;;;;;22.98;15.77;;;;;;;;;;4177914;34;20194;-55
2021/01/18 03:31:40;;;;;;;17.52;14.63;;;;;;;;;;4177773;34;20106;-56
2021/01/18 03:34:06;;;;;;;17.25;15.30;;;;;;;;;;4177825;34;20213;-54
2021/01/18 03:36:32;;;;;;;17.10;15.30;;;;;;;;;;4177664;34;20113;-54
2021/01/18 03:38:58;;;;;;;21.55;15.35;;;;;;;;;;4176910;34;20134;-56
2021/01/18 03:41:24;;;;;;;18.62;16.65;;;;;;;;;;4177940;34;20512;-56
2021/01/18 03:43:50;;;;;;;17.55;15.20;;;;;;;;;;4177662;34;20565;-57
2021/01/18 03:46:16;;;;;;;22.50;15.07;;;;;;;;;;4177575;34;20130;-56
2021/01/18 03:48:41;;;;;;;11.20;10.00;;;;;;;;;;4177749;34;20106;-56
2021/01/18 03:51:07;;;;;;;12.75;10.40;;;;;;;;;;4180872;34;20114;-56
2021/01/18 03:53:33;;;;;;;17.85;15.02;;;;;;;;;;4191232;34;20099;-54
2021/01/18 03:55:59;;;;;;;18.92;15.60;;;;;;;;;;4191111;34;20221;-56
2021/01/18 03:58:25;;;;;;;17.62;15.75;;;;;;;;;;4191270;34;20122;-57
2021/01/18 04:00:51;;;;;;;21.35;17.48;;;;;;;;;;4191371;34;20134;-53
2021/01/18 04:03:19;;;;;;;22.73;19.40;;;;;;;;;;4191121;34;20583;-57
2021/01/18 04:05:45;;;;;;;24.73;21.25;;;;;;;;;;4190914;34;20534;-52
2021/01/18 04:08:11;;;;;;;22.65;18.92;;;;;;;;;;4178378;34;20569;-54
2021/01/18 04:10:37;;;;;;;20.83;18.02;;;;;;;;;;4191065;34;20110;-55
2021/01/18 04:13:03;;;;;;;24.12;19.48;;;;;;;;;;4191404;34;20131;-54
2021/01/18 04:15:29;;;;;;;19.52;16.65;;;;;;;;;;4191058;34;20118;-53
2021/01/18 04:17:56;;;;;;;16.52;14.73;;;;;;;;;;4191156;34;20110;-51
2021/01/18 04:20:22;;;;;;;17.02;15.20;;;;;;;;;;4191324;34;20129;-54
2021/01/18 04:22:55;;;;;;;17.95;14.30;;;;;;;;;;4191422;34;20415;-52
2021/01/18 04:25:23;;;;;;;17.20;15.27;;;;;;;;;;4190846;34;20137;-54
2021/01/18 04:27:51;;;;;;;18.92;15.88;;;;;;;;;;4191049;34;20253;-54
2021/01/18 04:30:17;;;;;;;16.48;14.60;;;;;;;;;;4190988;34;20177;-53
2021/01/18 04:32:43;;;;;;;20.92;15.85;;;;;;;;;;4191051;34;20145;-56
2021/01/18 04:35:09;;;;;;;19.48;16.80;;;;;;;;;;4166792;34;20136;-53
2021/01/18 04:37:35;;;;;;;18.62;16.58;;;;;;;;;;4190967;34;20128;-55
2021/01/18 04:40:01;;;;;;;18.17;16.27;;;;;;;;;;4190890;34;20200;-56
2021/01/18 04:42:27;;;;;;;19.08;16.05;;;;;;;;;;4190967;34;20113;-54
2021/01/18 04:44:55;;;;;;;19.98;16.95;;;;;;;;;;4190727;34;20105;-54
2021/01/18 04:47:23;;;;;;;18.87;16.55;;;;;;;;;;4190660;34;20130;-51
2021/01/18 04:49:49;;;;;;;17.92;16.02;;;;;;;;;;4177657;34;20122;-54
2021/01/18 04:52:17;;;;;;;18.83;16.77;;;;;;;;;;4166662;34;20130;-56
2021/01/18 04:54:45;;;;;;;21.10;17.52;;;;;;;;;;4190765;34;20209;-52
2021/01/18 04:57:13;;;;;;;24.55;18.17;;;;;;;;;;4189246;34;20133;-54
2021/01/18 04:59:46;;;;;;;21.30;19.00;;;;;;;;;;4190781;34;20106;-54
2021/01/18 05:02:14;;;;;;;24.15;19.45;;;;;;;;;;4189608;34;20520;-54
2021/01/18 05:04:41;;;;;;;26.20;21.62;;;;;;;;;;4190556;34;20132;-54
2021/01/18 05:07:36;;;;;;;27.90;22.13;;;;;;;;;;4190784;34;20144;-53
2021/01/18 05:10:06;;;;;;;28.80;23.08;;;;;;;;;;4177271;34;20619;-54
2021/01/18 05:12:35;;;;;;;32.22;24.33;;;;;;;;;;4191006;34;20125;-54
2021/01/18 05:15:09;;;;;;;45.83;33.13;;;;;;;;;;4177685;34;20508;-55
2021/01/18 05:17:41;;;;;;;39.45;31.42;;;;;;;;;;4189506;34;20450;-54
2021/01/18 05:20:12;;;;;;;27.70;22.77;;;;;;;;;;4190414;34;20102;-53
2021/01/18 05:22:41;;;;;;;33.38;24.70;;;;;;;;;;4190424;34;20114;-54
2021/01/18 05:25:07;;;;;;;29.40;24.25;;;;;;;;;;4177575;34;20181;-55
2021/01/18 05:27:33;;;;;;;29.35;22.95;;;;;;;;;;4177438;34;20235;-55
2021/01/18 05:29:59;;;;;;;28.87;23.80;;;;;;;;;;4190393;34;20106;-54
2021/01/18 05:32:25;;;;;;;26.70;20.95;;;;;;;;;;4190433;34;20106;-53
2021/01/18 05:34:52;;;;;;;26.08;21.75;;;;;;;;;;4190559;34;20133;-55
2021/01/18 05:37:18;;;;;;;24.40;19.90;;;;;;;;;;4190524;34;20121;-53
2021/01/18 05:39:44;;;;;;;24.63;20.33;;;;;;;;;;4190481;34;20114;-53
2021/01/18 05:42:22;;;;;;;26.10;21.87;;;;;;;;;;4190605;34;20486;-53
2021/01/18 05:44:48;;;;;;;28.45;22.17;;;;;;;;;;4190277;34;20485;-53
2021/01/18 05:47:15;;;;;;;25.15;20.58;;;;;;;;;;4189997;34;20126;-52
2021/01/18 05:49:44;;;;;;;20.62;17.67;;;;;;;;;;4177407;34;20110;-53
2021/01/18 05:52:25;;;;;;;17.42;15.45;;;;;;;;;;4190294;34;20458;-53
2021/01/18 05:55:18;;;;;;;18.62;16.65;;;;;;;;;;4176917;34;20102;-52
2021/01/18 05:57:53;;;;;;;20.25;16.70;;;;;;;;;;4165168;34;20161;-54
2021/01/18 06:00:35;;;;;;;20.98;16.55;;;;;;;;;;4189498;34;20094;-52
2021/01/18 06:03:11;;;;;;;20.95;17.30;;;;;;;;;;4180248;34;20134;-54
2021/01/18 06:05:40;;;;;;;18.95;16.95;;;;;;;;;;4191923;34;20201;-52
2021/01/18 06:08:10;;;;;;;17.92;16.02;;;;;;;;;;4192103;34;20284;-54
2021/01/18 06:10:36;;;;;;;20.73;16.62;;;;;;;;;;4191989;34;20128;-55
2021/01/18 06:13:02;;;;;;;18.10;16.17;;;;;;;;;;4192366;34;20153;-56
2021/01/18 06:15:28;;;;;;;19.73;15.88;;;;;;;;;;4191883;34;20197;-53
2021/01/18 06:17:58;;;;;;;16.75;15.02;;;;;;;;;;4179226;34;20133;-55
2021/01/18 06:20:25;;;;;;;17.77;15.60;;;;;;;;;;4191938;34;20101;-54
2021/01/18 06:22:58;;;;;;;22.33;17.92;;;;;;;;;;4192010;34;20130;-55
2021/01/18 06:25:26;;;;;;;24.10;18.48;;;;;;;;;;4191743;34;20099;-53
2021/01/18 06:27:52;;;;;;;22.70;18.62;;;;;;;;;;4179321;34;20142;-55
2021/01/18 06:30:44;;;;;;;25.20;21.95;;;;;;;;;;4191855;34;20194;-54
2021/01/18 06:33:13;;;;;;;27.23;22.02;;;;;;;;;;4177390;34;20222;-54
2021/01/18 06:35:38;;;;;;;25.20;17.55;;;;;;;;;;4191753;34;20114;-54
2021/01/18 06:38:08;;;;;;;31.02;23.77;;;;;;;;;;4192044;34;20125;-55
2021/01/18 06:40:40;;;;;;;27.60;22.62;;;;;;;;;;4191552;34;20125;-56
2021/01/18 06:43:09;;;;;;;32.70;25.90;;;;;;;;;;4191743;34;20134;-57
2021/01/18 06:45:37;;;;;;;36.95;27.85;;;;;;;;;;4191626;34;20436;-55
2021/01/18 06:48:05;;;;;;;35.90;29.10;;;;;;;;;;4191711;34;20113;-55
2021/01/18 06:50:33;;;;;;;36.92;27.87;;;;;;;;;;4191611;34;20236;-52
2021/01/18 06:53:25;;;;;;;34.20;28.58;;;;;;;;;;4191740;34;20106;-52
2021/01/18 06:56:21;;;;;;;35.70;26.90;;;;;;;;;;4190369;34;20486;-53
2021/01/18 06:59:09;;;;;;;33.55;25.62;;;;;;;;;;4190427;34;20540;-54
2021/01/18 07:01:37;;;;;;;60.72;39.20;;;;;;;;;;4177907;34;20126;-55
2021/01/18 07:04:06;;;;;;;52.55;34.80;;;;;;;;;;4178049;34;20198;-54
2021/01/18 07:06:38;;;;;;;90.93;51.58;;;;;;;;;;4177669;34;20187;-53
2021/01/18 07:09:06;;;;;;;100.65;54.88;;;;;;;;;;4178053;34;20111;-53
2021/01/18 07:11:32;;;;;;;92.07;51.08;;;;;;;;;;4177587;34;20607;-52
2021/01/18 07:13:59;;;;;;;78.30;46.90;;;;;;;;;;4177761;34;20127;-52
2021/01/18 07:16:25;;;;;;;58.95;36.83;;;;;;;;;;4165064;34;20122;-54
2021/01/18 07:18:56;;;;;;;49.95;34.17;;;;;;;;;;4177792;34;20106;-54
2021/01/18 07:21:26;;;;;;;41.28;29.80;;;;;;;;;;4177619;34;20128;-54
2021/01/18 07:23:59;;;;;;;36.72;29.08;;;;;;;;;;4177655;34;20199;-52
2021/01/18 07:26:33;;;;;;;37.42;29.33;;;;;;;;;;4165195;34;20130;-54
2021/01/18 07:29:05;;;;;;;43.95;31.85;;;;;;;;;;4164953;34;20126;-53
2021/01/18 07:31:31;;;;;;;46.50;33.58;;;;;;;;;;4177727;34;20237;-54
2021/01/18 07:33:57;;;;;;;46.22;36.67;;;;;;;;;;4169851;34;20110;-54
2021/01/18 07:36:27;;;;;;;43.03;34.67;;;;;;;;;;4178469;34;20160;-54
2021/01/18 07:38:54;;;;;;;38.47;32.17;;;;;;;;;;4191269;34;20144;-53
2021/01/18 07:41:30;;;;;;;42.42;34.38;;;;;;;;;;4190930;34;20167;-55
2021/01/18 07:43:55;;;;;;;42.85;33.72;;;;;;;;;;4191267;34;20534;-53
2021/01/18 07:46:30;;;;;;;48.60;38.90;;;;;;;;;;4191038;34;20226;-54
2021/01/18 07:48:57;;;;;;;54.30;41.28;;;;;;;;;;4191023;34;20114;-55
2021/01/18 07:51:32;;;;;;;62.92;47.08;;;;;;;;;;4190954;34;20118;-53
2021/01/18 07:53:58;;;;;;;69.82;53.60;;;;;;;;;;4178414;34;20181;-54
2021/01/18 07:56:27;;;;;;;69.87;52.17;;;;;;;;;;4191358;34;20128;-54
2021/01/18 07:58:58;;;;;;;72.93;53.97;;;;;;;;;;4191095;34;20726;-55
2021/01/18 08:01:31;;;;;;;71.90;53.53;;;;;;;;;;4177010;34;20182;-54
2021/01/18 08:04:24;;;;;;;58.83;46.30;;;;;;;;;;4177312;34;20116;-57
2021/01/18 08:07:09;;;;;;;51.78;45.63;;;;;;;;;;4176041;34;20115;-57
2021/01/18 08:09:36;;;;;;;54.70;45.45;;;;;;;;;;4177294;34;20095;-58
2021/01/18 08:12:33;;;;;;;52.50;43.22;;;;;;;;;;4177531;34;20119;-58
2021/01/18 08:15:06;;;;;;;48.90;41.13;;;;;;;;;;4177305;34;20112;-57
2021/01/18 08:17:33;;;;;;;48.53;40.42;;;;;;;;;;4177237;34;20226;-57
2021/01/18 08:20:21;;;;;;;54.65;39.92;;;;;;;;;;4177196;34;20535;-54
2021/01/18 08:22:47;;;;;;;43.72;36.88;;;;;;;;;;4165200;34;20154;-53
2021/01/18 08:25:13;;;;;;;42.25;35.95;;;;;;;;;;4176232;34;20128;-54
2021/01/18 08:27:41;;;;;;;36.55;30.45;;;;;;;;;;4177134;34;20213;-54
2021/01/18 08:30:23;;;;;;;35.53;29.98;;;;;;;;;;4177296;34;20186;-56
2021/01/18 08:33:08;;;;;;;35.65;28.27;;;;;;;;;;4177306;34;20191;-53
2021/01/18 08:35:41;;;;;;;34.20;28.05;;;;;;;;;;4177159;34;20452;-52
2021/01/18 08:38:20;;;;;;;33.25;29.02;;;;;;;;;;4164601;34;20129;-54
2021/01/18 08:40:48;;;;;;;37.58;31.33;;;;;;;;;;4176879;34;20238;-57
2021/01/18 08:43:15;;;;;;;39.67;33.10;;;;;;;;;;4176980;34;20154;-56
2021/01/18 08:45:49;;;;;;;40.00;31.92;;;;;;;;;;4164388;34;20109;-54
2021/01/18 08:48:19;;;;;;;41.15;34.42;;;;;;;;;;4177215;34;20452;-57
2021/01/18 08:50:56;;;;;;;37.78;31.60;;;;;;;;;;4177117;34;20110;-51
2021/01/18 08:53:32;;;;;;;38.45;33.42;;;;;;;;;;4176985;34;20118;-53
2021/01/18 08:56:27;;;;;;;35.50;31.60;;;;;;;;;;4177157;34;20121;-56
2021/01/18 08:58:54;;;;;;;33.63;29.20;;;;;;;;;;4167091;34;20525;-55
2021/01/18 09:01:32;;;;;;;31.65;27.98;;;;;;;;;;4190234;34;20106;-55
2021/01/18 09:03:59;;;;;;;31.90;27.10;;;;;;;;;;4190731;34;20102;-56
2021/01/18 09:06:28;;;;;;;32.00;27.58;;;;;;;;;;4190264;34;20114;-57
2021/01/18 09:09:04;;;;;;;31.67;25.70;;;;;;;;;;4166960;34;20125;-57
2021/01/18 09:11:31;;;;;;;25.67;22.10;;;;;;;;;;4190658;34;20111;-57
2021/01/18 09:13:57;;;;;;;25.83;21.08;;;;;;;;;;4190647;34;20191;-57
2021/01/18 09:16:23;;;;;;;24.20;20.67;;;;;;;;;;4177613;34;20164;-58
2021/01/18 09:18:50;;;;;;;22.65;20.23;;;;;;;;;;4187702;34;20519;-58
2021/01/18 09:21:16;;;;;;;26.90;22.30;;;;;;;;;;4186180;34;20114;-58
2021/01/18 09:23:42;;;;;;;28.00;22.58;;;;;;;;;;4189509;34;20095;-57
2021/01/18 09:26:11;;;;;;;25.15;21.10;;;;;;;;;;4190030;34;20125;-57
2021/01/18 09:28:41;;;;;;;26.20;21.62;;;;;;;;;;4190024;34;20470;-54
2021/01/18 09:31:11;;;;;;;24.52;20.20;;;;;;;;;;4177142;34;20101;-57
2021/01/18 09:33:38;;;;;;;24.65;21.08;;;;;;;;;;4189826;34;20137;-57
2021/01/18 09:36:04;;;;;;;24.77;20.83;;;;;;;;;;4191358;34;20117;-56
2021/01/18 09:38:30;;;;;;;23.58;19.75;;;;;;;;;;4179521;34;20168;-56
2021/01/18 09:40:56;;;;;;;25.80;21.33;;;;;;;;;;4179016;34;20481;-54
2021/01/18 09:43:22;;;;;;;22.67;19.62;;;;;;;;;;4191944;34;20121;-56
2021/01/18 09:45:55;;;;;;;23.67;20.45;;;;;;;;;;4191846;34;20570;-56
2021/01/18 09:48:24;;;;;;;25.48;21.90;;;;;;;;;;4179187;34;20114;-59
2021/01/18 09:51:06;;;;;;;25.48;21.50;;;;;;;;;;4192093;34;20124;-57
2021/01/18 09:53:32;;;;;;;24.25;21.50;;;;;;;;;;4189801;34;20087;-56
2021/01/18 09:56:07;;;;;;;24.20;21.48;;;;;;;;;;4192460;34;20137;-56
2021/01/18 09:58:38;;;;;;;29.00;24.15;;;;;;;;;;4177194;34;20209;-54
2021/01/18 10:01:10;;;;;;;30.80;26.33;;;;;;;;;;4177399;34;20094;-49
2021/01/18 10:03:37;;;;;;;26.67;23.75;;;;;;;;;;4187659;34;20560;-53
2021/01/18 10:06:10;;;;;;;28.40;23.38;;;;;;;;;;4190376;34;20210;-56
2021/01/18 10:08:38;;;;;;;27.27;23.48;;;;;;;;;;4186831;34;20116;-54
2021/01/18 10:11:04;;;;;;;26.48;23.58;;;;;;;;;;4191733;34;20094;-54
2021/01/18 10:13:30;;;;;;;29.25;25.95;;;;;;;;;;4191506;34;20148;-57
2021/01/18 10:16:08;;;;;;;33.45;27.65;;;;;;;;;;4191938;34;20121;-57
2021/01/18 10:18:39;;;;;;;37.08;31.37;;;;;;;;;;4191669;34;20226;-53
2021/01/18 10:21:06;;;;;;;38.90;32.85;;;;;;;;;;4191717;34;20227;-55
2021/01/18 10:23:36;;;;;;;40.92;36.17;;;;;;;;;;4191586;34;20106;-58
2021/01/18 10:26:22;;;;;;;43.25;35.47;;;;;;;;;;4191668;34;20156;-58
2021/01/18 10:28:53;;;;;;;43.38;35.95;;;;;;;;;;4191885;34;20091;-57
2021/01/18 10:31:39;;;;;;;39.22;32.22;;;;;;;;;;4191635;34;20222;-58
2021/01/18 10:34:20;;;;;;;38.75;27.55;;;;;;;;;;4191344;34;20102;-59
2021/01/18 10:36:50;;;;;;;25.95;23.08;;;;;;;;;;4190574;34;20152;-57
2021/01/18 10:39:42;;;;;;;26.40;22.35;;;;;;;;;;4191733;34;20138;-55
2021/01/18 10:42:20;;;;;;;26.62;20.70;;;;;;;;;;4189745;34;20561;-51
2021/01/18 10:44:56;;;;;;;22.85;19.05;;;;;;;;;;4191795;34;20114;-56
2021/01/18 10:47:26;;;;;;;;;;;;;;;;;;4189918;34;20138;-56
2021/01/18 10:49:52;;;;;;;25.12;19.85;;;;;;;;;;4191690;34;19966;-56
2021/01/18 10:52:18;;;;;;;24.58;21.00;;;;;;;;;;4191380;34;20129;-53
2021/01/18 10:55:00;;;;;;;25.37;21.83;;;;;;;;;;4191653;34;20231;-55
2021/01/18 10:57:26;;;;;;;24.63;21.52;;;;;;;;;;4191508;34;20525;-53
2021/01/18 11:00:06;;;;;;;27.25;22.00;;;;;;;;;;4190106;34;20114;-50
2021/01/18 11:02:37;;;;;;;24.83;20.20;;;;;;;;;;4191383;34;20150;-54
2021/01/18 11:05:12;;;;;;;25.42;21.00;;;;;;;;;;4190095;34;20218;-57
2021/01/18 11:07:47;;;;;;;22.98;20.52;;;;;;;;;;4191639;34;20489;-51
2021/01/18 11:10:13;;;;;;;24.23;19.27;;;;;;;;;;4191173;34;20188;-52
2021/01/18 11:12:41;;;;;;;21.65;19.02;;;;;;;;;;4191421;34;20612;-55
2021/01/18 11:15:11;;;;;;;21.17;18.98;;;;;;;;;;4191372;34;20114;-50
2021/01/18 11:17:37;;;;;;;20.85;18.65;;;;;;;;;;4191625;34;20114;-52
2021/01/18 11:20:08;;;;;;;20.90;18.77;;;;;;;;;;4189979;34;20183;-56
2021/01/18 11:22:34;;;;;;;20.37;17.77;;;;;;;;;;4191116;34;20110;-53
2021/01/18 11:25:00;;;;;;;21.73;18.73;;;;;;;;;;4191462;34;20194;-50
2021/01/18 11:27:26;;;;;;;20.73;18.50;;;;;;;;;;4191266;34;20133;-55
2021/01/18 11:29:52;;;;;;;21.15;18.80;;;;;;;;;;4191514;34;20113;-50
2021/01/18 11:32:18;;;;;;;20.52;17.62;;;;;;;;;;4190994;34;20112;-50
2021/01/18 11:34:44;;;;;;;20.90;17.55;;;;;;;;;;4191509;34;20462;-54
2021/01/18 11:37:10;;;;;;;20.80;17.73;;;;;;;;;;4191256;34;20128;-55
2021/01/18 11:39:37;;;;;;;19.35;17.23;;;;;;;;;;4191620;34;20212;-56
2021/01/18 11:42:04;;;;;;;19.02;17.02;;;;;;;;;;4190866;34;20109;-54
2021/01/18 11:44:30;;;;;;;19.67;15.88;;;;;;;;;;4191320;34;20570;-55
2021/01/18 11:47:00;;;;;;;18.98;16.83;;;;;;;;;;4191464;34;20114;-55
2021/01/18 11:49:26;;;;;;;19.27;16.33;;;;;;;;;;4177675;34;20191;-55
2021/01/18 11:51:54;;;;;;;18.90;16.50;;;;;;;;;;4177531;34;20478;-56
2021/01/18 11:54:21;;;;;;;20.60;17.75;;;;;;;;;;4190899;34;20107;-54
2021/01/18 11:56:47;;;;;;;20.62;18.42;;;;;;;;;;4178513;34;20133;-53
2021/01/18 11:59:13;;;;;;;20.55;18.27;;;;;;;;;;4190328;34;20121;-57
2021/01/18 12:01:48;;;;;;;21.48;19.23;;;;;;;;;;4190970;34;20192;-52
2021/01/18 12:04:16;;;;;;;21.42;17.95;;;;;;;;;;4190861;34;20428;-56
2021/01/18 12:06:42;;;;;;;21.85;18.45;;;;;;;;;;4178545;34;20557;-53
2021/01/18 12:09:08;;;;;;;22.40;18.92;;;;;;;;;;4191055;34;20133;-56
2021/01/18 12:11:35;;;;;;;21.17;17.90;;;;;;;;;;4190963;34;20513;-55
2021/01/18 12:14:01;;;;;;;24.40;20.37;;;;;;;;;;4190871;34;20543;-55
2021/01/18 12:16:27;;;;;;;21.83;19.52;;;;;;;;;;4191152;34;20149;-56
2021/01/18 12:18:53;;;;;;;23.48;20.00;;;;;;;;;;4190659;34;20106;-55
2021/01/18 12:21:19;;;;;;;21.73;19.37;;;;;;;;;;4190777;34;20186;-51
2021/01/18 12:23:47;;;;;;;21.50;19.20;;;;;;;;;;4191115;34;20165;-51
2021/01/18 12:26:19;;;;;;;19.85;17.83;;;;;;;;;;4190800;34;20126;-57
2021/01/18 12:28:48;;;;;;;20.52;17.95;;;;;;;;;;4190883;34;20121;-57
2021/01/18 12:31:15;;;;;;;21.08;18.67;;;;;;;;;;4190686;34;20116;-57
2021/01/18 12:33:41;;;;;;;25.50;21.48;;;;;;;;;;4190832;34;20177;-57
2021/01/18 12:36:07;;;;;;;26.60;22.08;;;;;;;;;;4190685;34;20137;-53
2021/01/18 12:38:33;;;;;;;26.33;21.48;;;;;;;;;;4190989;34;20113;-56
2021/01/18 12:40:59;;;;;;;22.92;19.73;;;;;;;;;;4191213;34;20506;-56
2021/01/18 12:43:25;;;;;;;25.92;21.33;;;;;;;;;;4190796;34;20463;-52
2021/01/18 12:45:51;;;;;;;23.87;20.08;;;;;;;;;;4190596;34;20169;-57
2021/01/18 12:48:17;;;;;;;24.55;19.20;;;;;;;;;;4190671;34;20126;-54
2021/01/18 12:50:44;;;;;;;24.02;18.70;;;;;;;;;;4190349;34;20173;-54
2021/01/18 12:53:42;;;;;;;21.60;19.27;;;;;;;;;;4190482;34;20190;-57
2021/01/18 12:55:59;;;;;;;21.05;18.20;;;;;;;;;;4190827;34;20197;-57
2021/01/18 12:58:25;;;;;;;21.60;17.85;;;;;;;;;;4190517;34;20222;-57
2021/01/18 13:00:51;;;;;;;20.67;18.17;;;;;;;;;;4188838;34;20208;-55
2021/01/18 13:03:17;;;;;;;21.12;17.23;;;;;;;;;;4190003;34;20546;-55
2021/01/18 13:05:43;;;;;;;20.30;17.77;;;;;;;;;;4190118;34;20202;-56
2021/01/18 13:08:09;;;;;;;22.80;18.80;;;;;;;;;;4177673;34;20579;-57
2021/01/18 13:10:35;;;;;;;20.80;18.50;;;;;;;;;;4193063;34;20143;-58
2021/01/18 13:13:01;;;;;;;26.02;19.05;;;;;;;;;;4194712;34;20105;-57
2021/01/18 13:15:28;;;;;;;22.58;19.52;;;;;;;;;;4194778;34;20511;-53
2021/01/18 13:17:54;;;;;;;26.33;19.73;;;;;;;;;;4194882;34;20415;-53
2021/01/18 13:20:20;;;;;;;22.70;19.83;;;;;;;;;;4195185;34;20173;-54
2021/01/18 13:22:46;;;;;;;26.35;21.67;;;;;;;;;;4194502;34;20117;-52
2021/01/18 13:25:12;;;;;;;26.50;21.05;;;;;;;;;;4195015;34;20524;-53
2021/01/18 13:27:38;;;;;;;24.65;21.00;;;;;;;;;;4194808;34;20186;-52
2021/01/18 13:30:05;;;;;;;27.83;21.92;;;;;;;;;;4195108;34;20162;-54
2021/01/18 13:32:32;;;;;;;23.90;20.12;;;;;;;;;;4194544;34;20130;-54
2021/01/18 13:34:58;;;;;;;25.40;20.02;;;;;;;;;;4194936;34;20166;-55
2021/01/18 13:37:24;;;;;;;24.92;20.92;;;;;;;;;;4194468;34;20149;-53
2021/01/18 13:39:50;;;;;;;25.62;21.42;;;;;;;;;;4194913;34;20138;-54
2021/01/18 13:42:16;;;;;;;23.15;19.75;;;;;;;;;;4194338;34;20128;-55
2021/01/18 13:44:42;;;;;;;22.70;18.85;;;;;;;;;;4194597;34;20141;-54
2021/01/18 13:47:08;;;;;;;18.95;16.48;;;;;;;;;;4194769;34;20169;-59
2021/01/18 13:49:34;;;;;;;19.12;16.73;;;;;;;;;;4194653;34;20226;-57
2021/01/18 13:52:00;;;;;;;19.67;17.05;;;;;;;;;;4181792;34;20122;-53
2021/01/18 13:54:26;;;;;;;20.40;17.37;;;;;;;;;;4194312;34;20082;-53
2021/01/18 13:56:52;;;;;;;18.62;16.35;;;;;;;;;;4194820;34;20099;-55
2021/01/18 13:59:18;;;;;;;18.17;16.12;;;;;;;;;;4194172;34;20149;-55
2021/01/18 14:01:44;;;;;;;19.52;16.73;;;;;;;;;;4194481;34;20609;-57
2021/01/18 14:04:11;;;;;;;21.35;18.00;;;;;;;;;;4194266;34;20282;-61
2021/01/18 14:06:39;;;;;;;20.67;18.45;;;;;;;;;;4194321;34;20198;-53
2021/01/18 14:09:07;;;;;;;20.20;17.95;;;;;;;;;;4194274;34;20266;-53
2021/01/18 14:11:34;;;;;;;24.30;17.77;;;;;;;;;;4194486;34;20498;-50
2021/01/18 14:14:00;;;;;;;21.37;17.33;;;;;;;;;;4194323;34;20138;-53
2021/01/18 14:16:26;;;;;;;22.75;18.02;;;;;;;;;;4194410;34;20238;-50
2021/01/18 14:18:52;;;;;;;21.90;18.62;;;;;;;;;;4194360;34;20144;-54
2021/01/18 14:21:19;;;;;;;23.73;19.62;;;;;;;;;;4193112;34;20518;-53
2021/01/18 14:23:45;;;;;;;19.62;17.52;;;;;;;;;;4191752;34;20201;-53
2021/01/18 14:26:24;;;;;;;19.12;17.08;;;;;;;;;;4191862;34;20213;-53
2021/01/18 14:28:51;;;;;;;19.65;17.55;;;;;;;;;;4191778;34;20505;-54
2021/01/18 14:31:23;;;;;;;22.83;18.98;;;;;;;;;;4191795;34;20538;-53
2021/01/18 14:33:51;;;;;;;28.35;20.98;;;;;;;;;;4191919;34;20185;-52
2021/01/18 14:36:18;;;;;;;23.42;20.65;;;;;;;;;;4191981;34;20146;-50